Time;durP1;ratioP1;P1;durP2;ratioP2;P2;SDS_P1;SDS_P2;PMS_P1;PMS_P2;Temp;Humidity;BMP_temperature;BMP_pressure;BME280_temperature;BME280_humidity;BME280_pressure;Samples;Min_cycle;Max_cycle;Signal;HPM_P1;HPM_P2
2023/03/06 00:01:47;;;;;;;22.17;15.27;;;7.90;99.90;;;;;;4916854;29;20276;-85
2023/03/06 00:04:14;;;;;;;22.43;16.77;;;7.80;99.90;;;;;;4916469;29;20182;-85
2023/03/06 00:06:40;;;;;;;20.17;15.10;;;7.90;99.90;;;;;;4916554;29;20422;-85
2023/03/06 00:09:07;;;;;;;21.23;15.83;;;7.80;99.90;;;;;;4916845;29;20438;-82
2023/03/06 00:11:33;;;;;;;22.60;16.10;;;7.80;99.90;;;;;;4910917;29;20509;-85
2023/03/06 00:13:59;;;;;;;21.53;16.00;;;7.80;99.90;;;;;;4916856;29;20468;-85
2023/03/06 00:16:25;;;;;;;22.60;15.33;;;7.70;99.90;;;;;;4916396;29;20193;-85
2023/03/06 00:18:51;;;;;;;21.77;16.37;;;7.80;99.90;;;;;;4917049;29;20193;-85
2023/03/06 00:21:16;;;;;;;21.67;15.47;;;7.80;99.90;;;;;;4915884;29;20197;-85
2023/03/06 00:23:42;;;;;;;21.10;15.00;;;7.80;99.90;;;;;;4917501;29;20437;-85
2023/03/06 00:26:08;;;;;;;20.67;15.30;;;7.90;99.90;;;;;;4916135;29;20183;-82
2023/03/06 00:28:35;;;;;;;19.23;14.27;;;7.80;99.90;;;;;;4915047;29;20189;-85
2023/03/06 00:31:02;;;;;;;19.23;14.60;;;7.80;99.90;;;;;;4917251;29;20492;-85
2023/03/06 00:33:27;;;;;;;21.27;15.60;;;7.70;99.90;;;;;;4915794;29;20433;-85
2023/03/06 00:35:53;;;;;;;19.60;15.43;;;7.70;99.90;;;;;;4916161;29;20468;-84
2023/03/06 00:38:19;;;;;;;17.80;13.60;;;7.70;99.90;;;;;;4917035;29;20410;-85
2023/03/06 00:40:45;;;;;;;21.43;14.57;;;7.70;99.90;;;;;;4915595;29;20201;-85
2023/03/06 00:43:11;;;;;;;21.70;14.93;;;7.60;99.90;;;;;;4915703;29;20239;-82
2023/03/06 00:45:37;;;;;;;20.80;13.83;;;7.70;99.90;;;;;;4915327;29;20550;-84
2023/03/06 00:48:03;;;;;;;20.10;14.33;;;7.60;99.90;;;;;;4916776;29;20440;-85
2023/03/06 00:50:29;;;;;;;21.43;14.93;;;7.60;99.90;;;;;;4915646;29;20426;-85
2023/03/06 00:52:54;;;;;;;23.90;15.23;;;7.60;99.90;;;;;;4916321;29;20444;-85
2023/03/06 00:55:20;;;;;;;19.93;14.97;;;7.60;99.90;;;;;;4915245;29;20284;-85
2023/03/06 00:57:46;;;;;;;22.57;15.17;;;7.60;99.90;;;;;;4916487;29;20308;-85
2023/03/06 01:00:13;;;;;;;21.60;14.97;;;7.60;99.90;;;;;;4913506;29;20437;-82
2023/03/06 01:02:40;;;;;;;20.20;14.00;;;7.60;99.90;;;;;;4897854;29;20914;-86
2023/03/06 01:05:07;;;;;;;22.73;13.93;;;7.60;99.90;;;;;;4911729;29;20437;-85
2023/03/06 01:07:32;;;;;;;18.70;13.63;;;7.60;99.90;;;;;;4915300;29;20437;-85
2023/03/06 01:09:59;;;;;;;19.90;14.53;;;7.70;99.90;;;;;;4916705;29;20422;-84
2023/03/06 01:12:25;;;;;;;18.37;13.83;;;7.60;99.90;;;;;;4915249;29;20210;-85
2023/03/06 01:14:50;;;;;;;14.93;12.20;;;7.60;99.90;;;;;;4914556;29;21041;-85
2023/03/06 01:17:16;;;;;;;17.53;12.67;;;7.60;99.90;;;;;;4915460;29;20521;-85
2023/03/06 01:19:42;;;;;;;17.53;13.30;;;7.60;99.90;;;;;;4913462;29;20181;-85
2023/03/06 01:22:08;;;;;;;17.07;12.83;;;7.50;99.90;;;;;;4916700;29;20425;-82
2023/03/06 01:24:33;;;;;;;15.77;12.27;;;7.60;99.90;;;;;;4914740;29;20219;-85
2023/03/06 01:26:59;;;;;;;14.30;11.73;;;7.60;99.90;;;;;;4915584;29;20524;-84
2023/03/06 01:29:25;;;;;;;17.90;13.07;;;7.50;99.90;;;;;;4915597;29;20189;-84
2023/03/06 01:31:51;;;;;;;18.60;12.77;;;7.50;99.90;;;;;;4915487;29;20666;-85
2023/03/06 01:34:17;;;;;;;17.17;13.63;;;7.50;99.90;;;;;;4913998;29;20204;-85
2023/03/06 01:36:43;;;;;;;19.07;14.07;;;7.50;99.90;;;;;;4915909;29;20500;-85
2023/03/06 01:39:08;;;;;;;16.33;12.83;;;7.50;99.90;;;;;;4898249;29;20446;-85
2023/03/06 01:41:34;;;;;;;18.30;13.43;;;7.60;99.90;;;;;;4915034;29;20283;-86
2023/03/06 01:44:00;;;;;;;18.33;12.60;;;7.50;99.90;;;;;;4915634;29;20225;-83
2023/03/06 01:46:29;;;;;;;19.07;13.87;;;7.50;99.90;;;;;;4915263;29;20768;-86
2023/03/06 01:48:59;;;;;;;17.27;13.30;;;7.60;99.90;;;;;;4913404;29;20189;-85
2023/03/06 01:51:30;;;;;;;15.90;13.23;;;7.60;99.90;;;;;;4914472;29;20477;-85
2023/03/06 01:53:59;;;;;;;21.87;14.30;;;7.50;99.90;;;;;;4914219;29;20775;-85
2023/03/06 01:56:25;;;;;;;17.17;13.70;;;7.50;99.90;;;;;;4914545;29;20471;-85
2023/03/06 01:58:51;;;;;;;18.87;14.43;;;7.50;99.90;;;;;;4915359;29;20468;-86
2023/03/06 02:01:18;;;;;;;15.10;13.50;;;7.60;99.90;;;;;;4915221;29;20409;-85
2023/03/06 02:03:46;;;;;;;16.60;13.00;;;7.50;99.90;;;;;;4914669;29;20430;-85
2023/03/06 02:06:18;;;;;;;16.37;12.40;;;7.50;99.90;;;;;;4915125;29;20427;-81
2023/03/06 02:08:51;;;;;;;13.93;11.30;;;7.50;99.90;;;;;;4915739;29;20412;-85
2023/03/06 02:11:20;;;;;;;10.57;9.30;;;7.50;99.90;;;;;;4914666;29;20476;-84
2023/03/06 02:13:48;;;;;;;12.13;9.60;;;7.40;99.90;;;;;;4915307;29;20778;-85
2023/03/06 02:16:18;;;;;;;10.63;8.73;;;7.40;99.90;;;;;;4914639;29;20441;-80
2023/03/06 02:18:45;;;;;;;9.60;8.60;;;7.30;99.90;;;;;;4914122;29;20449;-84
2023/03/06 02:21:19;;;;;;;9.97;8.97;;;7.30;99.90;;;;;;4913896;29;20967;-84
2023/03/06 02:23:53;;;;;;;10.43;9.00;;;7.30;99.90;;;;;;4915150;29;20936;-85
2023/03/06 02:26:20;;;;;;;9.63;8.60;;;7.30;99.90;;;;;;4915153;29;20406;-84
2023/03/06 02:28:47;;;;;;;10.10;8.97;;;7.30;99.90;;;;;;4914678;29;20443;-84
2023/03/06 02:31:23;;;;;;;10.40;8.80;;;7.40;99.90;;;;;;4914798;29;20500;-80
2023/03/06 02:34:26;;;;;;;11.70;8.93;;;7.40;99.90;;;;;;4914769;29;20402;-83
2023/03/06 02:36:59;;;;;;;12.20;9.77;;;7.40;99.90;;;;;;4915658;29;20913;-84
2023/03/06 02:39:27;;;;;;;11.77;9.43;;;7.30;99.90;;;;;;4908291;29;20466;-84
2023/03/06 02:41:52;;;;;;;10.10;9.10;;;7.30;99.90;;;;;;4904963;29;20794;-83
2023/03/06 02:44:19;;;;;;;11.03;9.30;;;7.40;99.90;;;;;;4914202;29;20441;-80
2023/03/06 02:46:44;;;;;;;11.13;9.37;;;7.30;99.90;;;;;;4915191;29;20189;-84
2023/03/06 02:49:10;;;;;;;11.23;9.37;;;7.30;99.90;;;;;;4914368;29;20520;-84
2023/03/06 02:51:36;;;;;;;10.20;9.00;;;7.80;99.90;;;;;;4916059;29;20216;-84
2023/03/06 02:54:01;;;;;;;11.80;10.00;;;7.30;99.90;;;;;;4918778;29;20243;-84
2023/03/06 02:56:27;;;;;;;11.07;9.00;;;7.30;99.90;;;;;;4917026;29;20209;-84
2023/03/06 02:58:53;;;;;;;10.30;9.17;;;7.30;99.90;;;;;;4918233;29;20704;-84
2023/03/06 03:01:18;;;;;;;13.20;10.60;;;7.30;99.90;;;;;;4916326;29;20259;-82
2023/03/06 03:03:44;;;;;;;11.90;9.60;;;7.30;99.90;;;;;;4917636;29;20661;-85
2023/03/06 03:06:10;;;;;;;13.40;10.37;;;7.30;99.90;;;;;;4918097;29;20192;-84
2023/03/06 03:08:36;;;;;;;10.80;9.70;;;7.20;99.90;;;;;;4917571;29;20751;-84
2023/03/06 03:11:02;;;;;;;11.07;8.97;;;7.20;99.90;;;;;;4917711;29;20245;-85
2023/03/06 03:13:28;;;;;;;15.48;10.75;;;7.20;99.90;;;;;;4916887;29;20476;-83
2023/03/06 03:16:05;;;;;;;13.47;10.17;;;7.30;99.90;;;;;;4918545;29;20199;-84
2023/03/06 03:18:32;;;;;;;12.73;10.00;;;7.20;99.90;;;;;;4917137;29;20524;-84
2023/03/06 03:20:58;;;;;;;14.87;10.87;;;7.20;99.90;;;;;;4917789;29;20437;-84
2023/03/06 03:23:24;;;;;;;14.73;11.10;;;7.20;99.90;;;;;;4918080;29;20474;-86
2023/03/06 03:25:50;;;;;;;13.60;10.30;;;7.30;99.90;;;;;;4918205;29;20448;-84
2023/03/06 03:28:16;;;;;;;17.30;12.17;;;7.30;99.90;;;;;;4917060;29;20438;-83
2023/03/06 03:30:42;;;;;;;17.87;12.17;;;7.30;99.90;;;;;;4915569;29;20277;-84
2023/03/06 03:33:09;;;;;;;15.47;11.97;;;7.30;99.90;;;;;;4917798;29;20921;-84
2023/03/06 03:35:34;;;;;;;13.37;10.83;;;7.30;99.90;;;;;;4915578;29;20437;-85
2023/03/06 03:38:00;;;;;;;14.43;11.73;;;7.50;99.90;;;;;;4917775;29;20440;-84
2023/03/06 03:40:26;;;;;;;17.23;11.90;;;7.30;99.90;;;;;;4917338;29;20240;-84
2023/03/06 03:42:52;;;;;;;15.23;12.60;;;7.30;99.90;;;;;;4917311;29;20474;-84
2023/03/06 03:45:18;;;;;;;17.73;12.60;;;7.30;99.90;;;;;;4916569;29;20447;-80
2023/03/06 03:47:44;;;;;;;23.30;13.40;;;7.20;99.90;;;;;;4917636;29;20439;-85
2023/03/06 03:50:10;;;;;;;18.43;13.10;;;7.30;99.90;;;;;;4917236;29;20292;-84
2023/03/06 03:52:36;;;;;;;19.83;14.20;;;7.40;99.90;;;;;;4916388;29;20439;-83
2023/03/06 03:55:02;;;;;;;18.50;13.30;;;7.20;99.90;;;;;;4918241;29;20966;-84
2023/03/06 03:57:29;;;;;;;17.27;12.70;;;7.20;99.90;;;;;;4916490;29;20188;-83
2023/03/06 03:59:54;;;;;;;20.97;14.13;;;7.20;99.90;;;;;;4916462;29;20441;-84
2023/03/06 04:02:20;;;;;;;20.73;13.87;;;7.20;99.90;;;;;;4917005;29;20398;-80
2023/03/06 04:04:46;;;;;;;20.70;14.40;;;7.30;99.90;;;;;;4916987;29;20749;-84
2023/03/06 04:07:12;;;;;;;23.00;15.47;;;7.20;99.90;;;;;;4916974;29;20538;-84
2023/03/06 04:09:38;;;;;;;19.53;14.10;;;7.70;99.90;;;;;;4917190;29;20427;-84
2023/03/06 04:12:05;;;;;;;22.13;15.30;;;7.60;99.90;;;;;;4916942;29;20215;-83
2023/03/06 04:14:30;;;;;;;22.50;17.27;;;7.20;99.90;;;;;;4915467;29;20184;-83
2023/03/06 04:16:56;;;;;;;21.60;16.13;;;7.10;99.90;;;;;;4917315;29;20417;-84
2023/03/06 04:19:22;;;;;;;25.17;16.93;;;7.20;99.90;;;;;;4915658;29;20642;-80
2023/03/06 04:21:47;;;;;;;28.53;18.00;;;7.10;99.90;;;;;;4916699;29;20199;-83
2023/03/06 04:24:13;;;;;;;24.30;17.20;;;7.10;99.90;;;;;;4916995;29;20189;-83
2023/03/06 04:26:39;;;;;;;22.93;16.60;;;7.10;99.90;;;;;;4916448;29;20272;-83
2023/03/06 04:29:04;;;;;;;22.30;16.30;;;7.10;99.90;;;;;;4915516;29;20273;-85
2023/03/06 04:31:30;;;;;;;26.37;16.30;;;7.10;99.90;;;;;;4915582;29;20232;-85
2023/03/06 04:33:56;;;;;;;23.73;16.07;;;7.10;99.90;;;;;;4919222;29;20241;-85
2023/03/06 04:36:28;;;;;;;21.43;16.00;;;7.10;99.90;;;;;;4928655;29;20184;-80
2023/03/06 04:38:54;;;;;;;22.83;16.27;;;7.10;99.90;;;;;;4933865;29;20173;-84
2023/03/06 04:41:19;;;;;;;21.07;14.70;;;7.10;99.90;;;;;;4935215;29;20507;-85
2023/03/06 04:43:45;;;;;;;21.03;15.33;;;7.10;99.90;;;;;;4935809;29;20463;-84
2023/03/06 04:46:11;;;;;;;20.33;15.23;;;7.10;99.90;;;;;;4937691;29;20210;-84
2023/03/06 04:48:37;;;;;;;19.00;13.60;;;7.00;99.90;;;;;;4935087;29;20189;-84
2023/03/06 04:51:03;;;;;;;20.83;14.70;;;7.10;99.90;;;;;;4917973;29;20468;-83
2023/03/06 04:53:30;;;;;;;18.03;13.20;;;7.10;99.90;;;;;;4917323;29;20425;-84
2023/03/06 04:55:55;;;;;;;19.20;12.67;;;7.10;99.90;;;;;;4917329;29;20447;-84
2023/03/06 04:58:21;;;;;;;16.87;13.00;;;7.10;99.90;;;;;;4917340;29;20421;-84
2023/03/06 05:00:47;;;;;;;18.40;13.10;;;7.80;99.90;;;;;;4916544;29;20185;-84
2023/03/06 05:03:13;;;;;;;18.80;13.40;;;7.10;99.90;;;;;;4917102;29;20193;-84
2023/03/06 05:05:39;;;;;;;17.40;12.63;;;7.00;99.90;;;;;;4915634;29;20252;-84
2023/03/06 05:08:05;;;;;;;15.60;10.50;;;7.00;99.90;;;;;;4916529;29;20438;-84
2023/03/06 05:10:31;;;;;;;17.33;12.10;;;7.00;99.90;;;;;;4897732;29;20409;-85
2023/03/06 05:12:57;;;;;;;15.20;11.13;;;6.90;99.90;;;;;;4898793;29;20494;-84
2023/03/06 05:15:23;;;;;;;16.97;11.30;;;6.90;99.90;;;;;;4915780;29;20220;-84
2023/03/06 05:17:48;;;;;;;14.73;10.97;;;6.90;99.90;;;;;;4906047;29;20436;-85
2023/03/06 05:20:15;;;;;;;12.97;10.27;;;6.90;99.90;;;;;;4898108;29;20426;-84
2023/03/06 05:22:41;;;;;;;12.33;10.80;;;6.80;99.90;;;;;;4911766;29;20201;-83
2023/03/06 05:25:09;;;;;;;14.77;10.70;;;6.80;99.90;;;;;;4916912;29;20859;-83
2023/03/06 05:27:35;;;;;;;15.33;10.73;;;6.80;99.90;;;;;;4914382;29;20424;-83
2023/03/06 05:30:01;;;;;;;13.13;10.07;;;7.00;99.90;;;;;;4914171;29;20444;-84
2023/03/06 05:32:27;;;;;;;15.50;11.33;;;6.80;99.90;;;;;;4916394;29;20511;-80
2023/03/06 05:34:53;;;;;;;13.63;10.83;;;6.90;99.90;;;;;;4915517;29;20885;-85
2023/03/06 05:37:18;;;;;;;14.70;11.20;;;6.80;99.90;;;;;;4916902;29;20416;-84
2023/03/06 05:39:44;;;;;;;14.10;11.67;;;6.80;99.90;;;;;;4916052;29;20535;-84
2023/03/06 05:42:10;;;;;;;18.90;12.60;;;6.80;99.90;;;;;;4915085;29;20640;-85
2023/03/06 05:44:36;;;;;;;15.63;12.10;;;6.90;99.90;;;;;;4915777;29;20175;-84
2023/03/06 05:47:01;;;;;;;15.80;12.17;;;6.90;99.90;;;;;;4916580;29;20995;-86
2023/03/06 05:49:32;;;;;;;16.33;12.10;;;6.90;99.90;;;;;;4913886;29;20276;-81
2023/03/06 05:51:58;;;;;;;15.20;12.53;;;6.90;99.90;;;;;;4915309;29;20295;-85
2023/03/06 05:54:25;;;;;;;17.40;13.17;;;6.90;99.90;;;;;;4916258;29;20417;-86
2023/03/06 05:56:51;;;;;;;20.90;13.77;;;6.90;99.90;;;;;;4914901;29;20458;-85
2023/03/06 05:59:17;;;;;;;18.10;13.20;;;6.90;99.90;;;;;;4916060;29;20897;-85
2023/03/06 06:01:43;;;;;;;16.50;13.70;;;6.90;99.90;;;;;;4915069;29;20447;-85
2023/03/06 06:04:10;;;;;;;22.07;15.00;;;6.90;99.90;;;;;;4915497;29;20432;-85
2023/03/06 06:06:36;;;;;;;20.87;15.50;;;6.90;99.90;;;;;;4915328;29;20176;-84
2023/03/06 06:09:02;;;;;;;23.13;15.25;;;6.90;99.90;;;;;;4916152;29;20439;-84
2023/03/06 06:11:28;;;;;;;21.87;14.77;;;6.90;99.90;;;;;;4916065;29;20257;-80
2023/03/06 06:13:54;;;;;;;26.70;15.90;;;7.00;99.90;;;;;;4915828;29;20422;-85
2023/03/06 06:16:19;;;;;;;20.53;15.87;;;6.90;99.90;;;;;;4914371;29;20240;-84
2023/03/06 06:18:45;;;;;;;24.30;16.80;;;6.90;99.90;;;;;;4913997;29;20258;-85
2023/03/06 06:21:13;;;;;;;22.20;16.67;;;6.90;99.90;;;;;;4915005;29;20249;-85
2023/03/06 06:23:39;;;;;;;22.97;15.37;;;6.90;99.90;;;;;;4915039;29;20581;-83
2023/03/06 06:26:07;;;;;;;24.83;17.23;;;7.00;99.90;;;;;;4917647;29;20390;-84
2023/03/06 06:28:33;;;;;;;21.90;15.70;;;6.90;99.90;;;;;;4919170;29;20830;-83
2023/03/06 06:30:59;;;;;;;20.67;15.90;;;6.90;99.90;;;;;;4920267;29;20467;-84
2023/03/06 06:33:25;;;;;;;24.57;15.93;;;6.90;99.90;;;;;;4918629;29;20471;-85
2023/03/06 06:35:51;;;;;;;21.77;15.53;;;6.90;99.90;;;;;;4918352;29;20545;-84
2023/03/06 06:38:17;;;;;;;21.67;15.47;;;6.90;99.90;;;;;;4919836;29;20196;-85
2023/03/06 06:40:43;;;;;;;22.33;16.50;;;6.90;99.90;;;;;;4918555;29;20437;-85
2023/03/06 06:43:09;;;;;;;25.10;17.30;;;6.90;99.90;;;;;;4919548;29;20454;-86
2023/03/06 06:45:35;;;;;;;23.87;16.17;;;6.90;99.90;;;;;;4917672;29;20499;-85
2023/03/06 06:48:00;;;;;;;18.07;14.67;;;6.90;99.90;;;;;;4918536;29;20435;-85
2023/03/06 06:50:26;;;;;;;22.67;15.47;;;6.90;99.90;;;;;;4918591;29;20918;-85
2023/03/06 06:52:52;;;;;;;20.80;15.40;;;6.90;99.90;;;;;;4916052;29;20275;-87
2023/03/06 06:55:18;;;;;;;24.80;15.57;;;6.90;99.90;;;;;;4918649;29;20273;-87
2023/03/06 06:57:44;;;;;;;22.73;15.57;;;7.10;99.90;;;;;;4918988;29;20180;-88
2023/03/06 07:00:13;;;;;;;24.00;15.80;;;7.00;99.90;;;;;;4919090;29;20192;-90
2023/03/06 07:02:39;;;;;;;24.10;16.60;;;7.40;99.90;;;;;;4919496;29;20453;-86
2023/03/06 07:05:07;;;;;;;23.90;17.47;;;8.10;99.90;;;;;;4919658;29;20393;-84
2023/03/06 07:07:35;;;;;;;20.60;15.77;;;9.00;99.90;;;;;;4901664;29;20186;-85
2023/03/06 07:10:05;;;;;;;25.23;18.10;;;9.60;99.90;;;;;;4918042;29;20505;-81
2023/03/06 07:12:31;;;;;;;24.63;16.17;;;9.90;99.90;;;;;;4918591;29;20446;-82
2023/03/06 07:14:57;;;;;;;22.83;16.47;;;10.30;99.90;;;;;;4915248;29;20777;-81
2023/03/06 07:17:23;;;;;;;23.70;18.37;;;10.60;99.90;;;;;;4909148;29;20436;-81
2023/03/06 07:19:49;;;;;;;18.73;15.10;;;11.10;99.90;;;;;;4899939;29;20414;-81
2023/03/06 07:22:14;;;;;;;25.17;17.97;;;11.30;99.90;;;;;;4917462;29;20182;-84
2023/03/06 07:24:40;;;;;;;22.60;17.67;;;11.50;99.90;;;;;;4918831;29;20172;-85
2023/03/06 07:27:06;;;;;;;24.67;17.60;;;11.80;99.10;;;;;;4900467;29;20187;-83
2023/03/06 07:29:33;;;;;;;23.50;18.47;;;12.00;98.30;;;;;;4915383;29;20193;-84
2023/03/06 07:31:59;;;;;;;20.00;16.37;;;12.00;92.30;;;;;;4915214;29;20304;-83
2023/03/06 07:34:24;;;;;;;21.93;16.47;;;11.70;90.80;;;;;;4914683;29;20518;-82
2023/03/06 07:36:50;;;;;;;20.27;15.00;;;11.30;90.50;;;;;;4914546;29;20911;-78
2023/03/06 07:39:16;;;;;;;20.47;14.87;;;10.90;90.80;;;;;;4918474;29;20182;-85
2023/03/06 07:41:42;;;;;;;22.77;14.80;;;10.40;91.60;;;;;;4917647;29;20671;-81
2023/03/06 07:44:07;;;;;;;17.93;12.47;;;9.90;93.30;;;;;;4921190;29;20218;-81
2023/03/06 07:46:33;;;;;;;18.40;14.07;;;9.50;94.40;;;;;;4920449;29;20197;-81
2023/03/06 07:48:59;;;;;;;19.10;13.90;;;9.10;95.70;;;;;;4922113;29;20186;-81
2023/03/06 07:51:24;;;;;;;18.57;13.80;;;8.90;96.90;;;;;;4919748;29;20210;-81
2023/03/06 07:53:50;;;;;;;18.33;13.73;;;8.70;97.90;;;;;;4921276;29;20191;-81
2023/03/06 07:56:16;;;;;;;20.97;14.87;;;8.50;99.50;;;;;;4920029;29;20194;-82
2023/03/06 07:58:44;;;;;;;19.80;13.87;;;8.40;99.90;;;;;;4916528;29;20193;-82
2023/03/06 08:01:13;;;;;;;23.30;13.73;;;8.20;99.90;;;;;;4917440;29;20794;-82
2023/03/06 08:03:39;;;;;;;21.17;13.67;;;7.90;99.90;;;;;;4916734;29;20501;-82
2023/03/06 08:06:19;;;;;;;24.90;14.63;;;7.80;99.90;;;;;;4915703;29;20447;-82
2023/03/06 08:08:46;;;;;;;24.40;16.07;;;7.70;99.90;;;;;;4916180;29;20191;-82
2023/03/06 08:11:14;;;;;;;23.67;14.43;;;7.50;99.90;;;;;;4917281;29;20468;-82
2023/03/06 08:13:40;;;;;;;23.10;15.03;;;7.50;99.90;;;;;;4915305;29;20792;-82
2023/03/06 08:16:07;;;;;;;24.40;15.60;;;7.50;99.90;;;;;;4915139;29;20854;-82
2023/03/06 08:18:33;;;;;;;25.30;15.90;;;7.50;99.90;;;;;;4916782;29;20422;-82
2023/03/06 08:21:10;;;;;;;22.93;14.93;;;7.50;99.90;;;;;;4908749;29;20440;-81
2023/03/06 08:23:36;;;;;;;22.10;15.30;;;7.40;99.90;;;;;;4911714;29;20441;-82
2023/03/06 08:26:06;;;;;;;24.73;14.93;;;7.40;99.90;;;;;;4914109;29;20452;-81
2023/03/06 08:28:32;;;;;;;20.83;15.73;;;7.30;99.90;;;;;;4917768;29;20417;-82
2023/03/06 08:31:05;;;;;;;23.20;14.87;;;7.30;99.90;;;;;;4915794;29;20446;-81
2023/03/06 08:33:31;;;;;;;23.87;15.47;;;7.30;99.90;;;;;;4915023;29;20422;-82
2023/03/06 08:35:57;;;;;;;23.30;15.43;;;7.30;99.90;;;;;;4913720;29;20471;-82
2023/03/06 08:38:22;;;;;;;23.80;14.70;;;7.40;99.90;;;;;;4912804;29;20264;-82
2023/03/06 08:40:48;;;;;;;20.53;14.63;;;7.40;99.90;;;;;;4913431;29;20630;-82
2023/03/06 08:43:14;;;;;;;21.90;14.60;;;7.30;99.90;;;;;;4909328;29;20386;-82
2023/03/06 08:45:39;;;;;;;21.20;14.90;;;7.30;99.90;;;;;;4912875;29;20193;-83
2023/03/06 08:48:05;;;;;;;22.77;14.47;;;7.30;99.90;;;;;;4911310;29;20200;-82
2023/03/06 08:50:31;;;;;;;21.20;14.73;;;7.30;99.90;;;;;;4894940;29;20619;-83
2023/03/06 08:52:57;;;;;;;20.70;14.30;;;7.30;99.90;;;;;;4894166;29;20630;-82
2023/03/06 08:55:23;;;;;;;20.60;15.23;;;7.20;99.90;;;;;;4894898;29;20205;-82
2023/03/06 08:57:49;;;;;;;18.90;14.53;;;7.30;99.90;;;;;;4894272;29;20419;-82
2023/03/06 09:00:15;;;;;;;22.33;14.60;;;7.20;99.90;;;;;;4911215;29;20688;-82
2023/03/06 09:02:41;;;;;;;20.00;14.37;;;7.20;99.90;;;;;;4913395;29;20212;-82
2023/03/06 09:05:07;;;;;;;22.87;14.13;;;7.20;99.90;;;;;;4912022;29;20413;-82
2023/03/06 09:07:34;;;;;;;22.63;14.73;;;7.20;99.90;;;;;;4913334;29;20185;-83
2023/03/06 09:10:00;;;;;;;21.07;14.20;;;7.40;99.90;;;;;;4914240;29;20469;-83
2023/03/06 09:12:26;;;;;;;21.17;12.40;;;7.20;99.90;;;;;;4917099;29;20928;-83
2023/03/06 09:14:51;;;;;;;18.53;13.40;;;7.20;99.90;;;;;;4916395;29;20256;-83
2023/03/06 09:17:17;;;;;;;17.13;13.70;;;7.20;99.90;;;;;;4917169;29;20436;-83
2023/03/06 09:19:43;;;;;;;18.07;12.77;;;7.10;99.90;;;;;;4915480;29;20634;-83
2023/03/06 09:22:09;;;;;;;17.73;12.63;;;7.10;99.90;;;;;;4916700;29;20264;-83
2023/03/06 09:24:34;;;;;;;14.00;11.57;;;7.20;99.90;;;;;;4917074;29;20268;-83
2023/03/06 09:27:00;;;;;;;15.93;12.10;;;7.30;99.90;;;;;;4916471;29;20512;-83
2023/03/06 09:29:26;;;;;;;13.80;11.67;;;7.20;99.90;;;;;;4914290;29;20184;-83
2023/03/06 09:31:52;;;;;;;16.67;12.57;;;7.30;99.90;;;;;;4894532;29;20943;-84
2023/03/06 09:34:18;;;;;;;16.97;12.50;;;7.30;99.90;;;;;;4912165;29;20968;-83
2023/03/06 09:36:44;;;;;;;16.53;11.47;;;7.30;99.90;;;;;;4911564;29;20446;-84
2023/03/06 09:39:10;;;;;;;15.33;11.60;;;7.40;99.90;;;;;;4913268;29;20726;-84
2023/03/06 09:41:40;;;;;;;16.67;10.83;;;7.30;99.90;;;;;;4914684;29;20688;-83
2023/03/06 09:44:20;;;;;;;19.37;11.00;;;7.40;99.90;;;;;;4916323;29;20461;-83
2023/03/06 09:47:13;;;;;;;15.80;11.90;;;7.30;99.90;;;;;;4912402;29;20768;-83
2023/03/06 09:50:04;;;;;;;13.87;10.20;;;7.30;99.90;;;;;;4898385;29;20410;-84
2023/03/06 09:52:45;;;;;;;14.40;10.90;;;7.30;99.90;;;;;;4911475;29;20839;-85
2023/03/06 09:55:13;;;;;;;16.73;11.20;;;7.20;99.90;;;;;;4925156;29;20979;-84
2023/03/06 09:57:42;;;;;;;15.70;11.07;;;7.40;99.90;;;;;;4913658;29;20448;-84
2023/03/06 10:00:18;;;;;;;14.77;11.20;;;7.20;99.90;;;;;;4916426;29;20502;-84
2023/03/06 10:02:48;;;;;;;17.47;11.57;;;7.20;99.90;;;;;;4919256;29;20473;-84
2023/03/06 10:05:24;;;;;;;15.03;11.43;;;7.20;99.90;;;;;;4916882;29;20473;-84
2023/03/06 10:08:24;;;;;;;16.30;11.50;;;7.20;99.90;;;;;;4918584;29;20376;-84
2023/03/06 10:10:58;;;;;;;15.83;11.83;;;7.10;99.90;;;;;;4917482;29;20452;-84
2023/03/06 10:13:23;;;;;;;16.83;12.07;;;7.10;99.90;;;;;;4919581;29;20515;-83
2023/03/06 10:15:52;;;;;;;19.07;13.17;;;7.10;99.90;;;;;;4922160;29;20490;-83
2023/03/06 10:18:18;;;;;;;15.97;11.40;;;7.10;99.90;;;;;;4919597;29;20430;-83
2023/03/06 10:21:11;;;;;;;17.30;12.70;;;7.10;99.90;;;;;;4917049;29;20460;-84
2023/03/06 10:24:00;;;;;;;17.10;11.23;;;7.10;99.90;;;;;;4907803;29;20200;-83
2023/03/06 10:26:36;;;;;;;15.90;12.43;;;7.10;99.90;;;;;;4918536;29;20855;-84
2023/03/06 10:29:17;;;;;;;17.60;11.93;;;7.20;99.90;;;;;;4915489;29;20440;-83
2023/03/06 10:31:47;;;;;;;15.47;11.80;;;7.20;99.90;;;;;;4916186;29;20483;-88
2023/03/06 10:34:20;;;;;;;16.93;12.40;;;7.30;99.90;;;;;;4916940;29;20445;-84
2023/03/06 10:36:45;;;;;;;17.73;12.73;;;7.20;99.90;;;;;;4915240;29;20441;-83
2023/03/06 10:39:20;;;;;;;16.90;12.53;;;7.10;99.90;;;;;;4915518;29;20459;-83
2023/03/06 10:41:47;;;;;;;20.13;13.63;;;7.10;99.90;;;;;;4918020;29;20656;-83
2023/03/06 10:44:12;;;;;;;18.40;12.50;;;7.20;99.90;;;;;;4915069;29;20500;-84
2023/03/06 10:46:43;;;;;;;19.43;13.90;;;7.20;99.90;;;;;;4918796;29;20483;-84
2023/03/06 10:49:27;;;;;;;16.17;12.50;;;7.20;99.90;;;;;;4917559;29;20650;-85
2023/03/06 10:52:08;;;;;;;19.00;13.60;;;7.10;99.90;;;;;;4909942;29;20550;-84
2023/03/06 10:54:40;;;;;;;18.17;12.87;;;7.10;99.90;;;;;;4918222;29;20459;-83
2023/03/06 10:57:18;;;;;;;20.50;14.70;;;7.00;99.90;;;;;;4919037;29;20420;-83
2023/03/06 10:59:53;;;;;;;19.17;14.00;;;7.00;99.90;;;;;;4901297;29;20530;-84
2023/03/06 11:02:37;;;;;;;19.43;13.23;;;7.00;99.90;;;;;;4917602;29;20447;-83
2023/03/06 11:05:05;;;;;;;18.50;13.57;;;7.10;99.90;;;;;;4917948;29;20503;-84
2023/03/06 11:07:32;;;;;;;20.90;15.80;;;7.00;99.90;;;;;;4916851;29;20428;-83
2023/03/06 11:10:25;;;;;;;20.90;14.30;;;7.00;99.90;;;;;;4917494;29;20471;-84
2023/03/06 11:13:17;;;;;;;25.43;17.50;;;7.10;99.90;;;;;;4910146;29;21019;-83
2023/03/06 11:15:56;;;;;;;25.07;15.87;;;7.10;99.90;;;;;;4908820;29;20535;-83
2023/03/06 11:18:33;;;;;;;23.37;17.17;;;7.00;99.90;;;;;;4915461;29;20439;-84
2023/03/06 11:21:19;;;;;;;23.50;16.57;;;7.00;99.90;;;;;;4915887;29;20436;-84
2023/03/06 11:23:46;;;;;;;21.97;16.20;;;7.00;99.90;;;;;;4917930;29;20410;-85
2023/03/06 11:26:14;;;;;;;26.27;16.87;;;7.10;99.90;;;;;;4921839;29;20441;-84
2023/03/06 11:28:46;;;;;;;24.33;16.27;;;7.10;99.90;;;;;;4933243;29;20415;-83
2023/03/06 11:31:19;;;;;;;21.90;15.33;;;7.20;99.90;;;;;;4907024;29;20473;-86
2023/03/06 11:34:09;;;;;;;21.93;15.67;;;7.30;99.90;;;;;;4911266;29;20455;-84
2023/03/06 11:36:46;;;;;;;21.30;14.60;;;7.40;99.90;;;;;;4907066;29;20519;-85
2023/03/06 11:39:35;;;;;;;21.83;15.60;;;7.50;99.90;;;;;;4916639;29;20517;-84
2023/03/06 11:42:19;;;;;;;20.60;15.03;;;7.60;99.90;;;;;;4916633;29;20444;-84
2023/03/06 11:45:17;;;;;;;20.60;15.53;;;8.30;99.90;;;;;;4915676;29;20784;-88
2023/03/06 11:48:08;;;;;;;22.93;16.70;;;7.80;99.90;;;;;;4901848;29;20875;-85
2023/03/06 11:50:39;;;;;;;19.07;14.60;;;8.00;99.90;;;;;;4929744;29;20437;-85
2023/03/06 11:53:11;;;;;;;17.20;14.13;;;8.10;99.90;;;;;;4909530;29;20494;-84
2023/03/06 11:55:46;;;;;;;19.70;14.83;;;8.20;99.90;;;;;;4915491;29;20440;-84
2023/03/06 11:58:20;;;;;;;20.47;14.60;;;8.10;99.90;;;;;;4917059;29;20436;-84
2023/03/06 12:00:54;;;;;;;19.10;14.33;;;8.20;99.90;;;;;;4915966;29;20464;-84
2023/03/06 12:03:44;;;;;;;15.43;12.10;;;8.20;99.90;;;;;;4907841;29;20442;-84
2023/03/06 12:06:44;;;;;;;18.43;14.97;;;8.30;99.90;;;;;;4916426;29;20581;-84
2023/03/06 12:09:13;;;;;;;18.33;13.70;;;8.40;99.90;;;;;;4917277;29;20442;-84
2023/03/06 12:11:46;;;;;;;21.53;16.23;;;8.50;99.90;;;;;;4913388;29;20466;-85
2023/03/06 12:14:36;;;;;;;21.13;16.33;;;8.60;99.90;;;;;;4913371;29;20505;-84
2023/03/06 12:17:19;;;;;;;24.73;17.10;;;8.70;99.90;;;;;;4914375;29;20434;-84
2023/03/06 12:20:20;;;;;;;21.80;17.03;;;8.80;98.50;;;;;;4916362;29;20997;-84
2023/03/06 12:22:59;;;;;;;22.00;17.20;;;8.80;97.90;;;;;;4914331;29;20465;-90
2023/03/06 12:25:30;;;;;;;19.77;15.97;;;8.80;98.10;;;;;;4913898;29;20477;-88
2023/03/06 12:28:21;;;;;;;18.63;14.27;;;8.90;97.70;;;;;;4912711;29;20539;-84
2023/03/06 12:31:02;;;;;;;19.23;15.50;;;9.00;97.10;;;;;;4905571;29;20524;-89
2023/03/06 12:34:00;;;;;;;19.63;14.40;;;9.00;97.30;;;;;;4916253;29;20445;-83
2023/03/06 12:36:26;;;;;;;16.93;13.40;;;8.80;95.70;;;;;;4916773;29;20450;-83
2023/03/06 12:39:13;;;;;;;14.80;12.00;;;8.70;95.80;;;;;;4915215;29;20939;-88
2023/03/06 12:41:47;;;;;;;15.90;12.27;;;8.70;96.60;;;;;;4915877;29;20209;-83
2023/03/06 12:44:33;;;;;;;16.33;11.97;;;8.70;95.90;;;;;;4914031;29;20561;-83
2023/03/06 12:47:10;;;;;;;21.98;16.15;;;8.80;96.20;;;;;;4913954;29;20442;-87
2023/03/06 12:49:40;;;;;;;12.20;10.53;;;8.90;95.10;;;;;;4902611;29;20236;-83